Rogers Hill, Texas
Current Conditions -  °F | °C
As of 10:52 PM on Saturday 20 Dec 2014 (Local Time) from KCNW Reporting Station
Haze Haze  
Wind Chill: 48°   Ceiling: 1100
Heat Index: 48°   Visibility: 5mi
Dew Point: 46°   Wind: 0mph
Humidity: 93%   Direction: NA
Pressure: 30.19"   Gusts: NA
Location:  31.7636°N, 97.1357°W
Report Text: KCNW 210452Z 00000KT 5SM BR OVC011 09/08 A3019
Loading
Personal Weather Stations






























Interactive Weather Map New forecast layout! Learn more

10-Day Weather Forecast

Advertisements
Track Severe Weather on mobile